Portland, New York
Current Conditions -  °F | °C
As of 8:53 PM on Thursday 20 Nov 2014 (Local Time) from KDKK Reporting Station
Haze Haze  
Wind Chill: 12°   Ceiling: 3900
Heat Index: 26°   Visibility: 6mi
Dew Point: 12°   Wind: 20mph
Humidity: 55%   Direction: 280°W
Pressure: 29.98"   Gusts: 28mph
Location:  42.38°N, 79.47°W
Report Text: KDKK 210153Z AUTO 28017G24KT 6SM HZ BKN039 OVC047 M03/M11 A2998 RMK AO2 PK WND 28031/0106 SNE10 SLP163 P0000 T10331111
Loading
Personal Weather Stations






























Interactive Weather Map New forecast layout! Learn more

10-Day Weather Forecast

Advertisements
Track Severe Weather on mobile